sensor_id;sensor_type;location;lat;lon;timestamp;P1;durP1;ratioP1;P2;durP2;ratioP2
78923;SDS011;75282;41.394;23.212;2024-03-25T00:01:09;13.15;;;7.60;;
78923;SDS011;75282;41.394;23.212;2024-03-25T00:03:34;12.15;;;8.48;;
78923;SDS011;75282;41.394;23.212;2024-03-25T00:05:59;11.43;;;9.05;;
78923;SDS011;75282;41.394;23.212;2024-03-25T00:08:25;12.57;;;8.77;;
78923;SDS011;75282;41.394;23.212;2024-03-25T00:10:50;13.90;;;9.43;;
78923;SDS011;75282;41.394;23.212;2024-03-25T00:13:16;14.38;;;9.73;;
78923;SDS011;75282;41.394;23.212;2024-03-25T00:15:41;13.25;;;8.82;;
78923;SDS011;75282;41.394;23.212;2024-03-25T00:18:08;10.15;;;8.25;;
78923;SDS011;75282;41.394;23.212;2024-03-25T00:20:34;12.77;;;8.75;;
78923;SDS011;75282;41.394;23.212;2024-03-25T00:22:59;12.50;;;8.57;;
78923;SDS011;75282;41.394;23.212;2024-03-25T00:25:25;11.30;;;8.63;;
78923;SDS011;75282;41.394;23.212;2024-03-25T00:27:50;9.35;;;7.82;;
78923;SDS011;75282;41.394;23.212;2024-03-25T00:30:15;13.27;;;9.27;;
78923;SDS011;75282;41.394;23.212;2024-03-25T00:32:41;12.20;;;8.68;;
78923;SDS011;75282;41.394;23.212;2024-03-25T00:35:06;12.07;;;8.55;;
78923;SDS011;75282;41.394;23.212;2024-03-25T00:37:32;13.38;;;8.90;;
78923;SDS011;75282;41.394;23.212;2024-03-25T00:39:58;13.35;;;8.80;;
78923;SDS011;75282;41.394;23.212;2024-03-25T00:42:24;12.48;;;8.70;;
78923;SDS011;75282;41.394;23.212;2024-03-25T00:44:50;13.20;;;8.85;;
78923;SDS011;75282;41.394;23.212;2024-03-25T00:47:15;15.43;;;8.55;;
78923;SDS011;75282;41.394;23.212;2024-03-25T00:49:41;10.75;;;7.35;;
78923;SDS011;75282;41.394;23.212;2024-03-25T00:52:06;10.50;;;7.50;;
78923;SDS011;75282;41.394;23.212;2024-03-25T00:54:32;12.45;;;8.07;;
78923;SDS011;75282;41.394;23.212;2024-03-25T00:56:57;12.38;;;6.95;;
78923;SDS011;75282;41.394;23.212;2024-03-25T00:59:23;7.50;;;5.15;;
78923;SDS011;75282;41.394;23.212;2024-03-25T01:01:48;8.60;;;6.13;;
78923;SDS011;75282;41.394;23.212;2024-03-25T01:04:14;7.03;;;5.43;;
78923;SDS011;75282;41.394;23.212;2024-03-25T01:06:39;6.63;;;4.38;;
78923;SDS011;75282;41.394;23.212;2024-03-25T01:09:04;4.53;;;3.20;;
78923;SDS011;75282;41.394;23.212;2024-03-25T01:11:30;4.50;;;2.95;;
78923;SDS011;75282;41.394;23.212;2024-03-25T01:13:55;3.50;;;2.60;;
78923;SDS011;75282;41.394;23.212;2024-03-25T01:16:21;4.13;;;2.67;;
78923;SDS011;75282;41.394;23.212;2024-03-25T01:18:47;3.22;;;2.35;;
78923;SDS011;75282;41.394;23.212;2024-03-25T01:21:12;5.03;;;2.03;;
78923;SDS011;75282;41.394;23.212;2024-03-25T01:23:37;3.30;;;1.92;;
78923;SDS011;75282;41.394;23.212;2024-03-25T01:26:03;3.08;;;2.35;;
78923;SDS011;75282;41.394;23.212;2024-03-25T01:28:28;6.43;;;2.47;;
78923;SDS011;75282;41.394;23.212;2024-03-25T01:30:54;4.13;;;1.67;;
78923;SDS011;75282;41.394;23.212;2024-03-25T01:33:19;3.35;;;1.95;;
78923;SDS011;75282;41.394;23.212;2024-03-25T01:35:45;3.97;;;2.00;;
78923;SDS011;75282;41.394;23.212;2024-03-25T01:38:10;2.90;;;1.67;;
78923;SDS011;75282;41.394;23.212;2024-03-25T01:40:35;2.88;;;2.00;;
78923;SDS011;75282;41.394;23.212;2024-03-25T01:43:02;3.58;;;2.08;;
78923;SDS011;75282;41.394;23.212;2024-03-25T01:45:37;2.60;;;1.55;;
78923;SDS011;75282;41.394;23.212;2024-03-25T01:48:04;4.05;;;2.28;;
78923;SDS011;75282;41.394;23.212;2024-03-25T01:50:34;1.88;;;1.40;;
78923;SDS011;75282;41.394;23.212;2024-03-25T01:53:00;2.95;;;1.70;;
78923;SDS011;75282;41.394;23.212;2024-03-25T01:55:27;2.72;;;1.80;;
78923;SDS011;75282;41.394;23.212;2024-03-25T01:57:53;2.20;;;1.38;;
78923;SDS011;75282;41.394;23.212;2024-03-25T02:00:19;2.90;;;1.38;;
78923;SDS011;75282;41.394;23.212;2024-03-25T02:02:45;3.05;;;1.50;;
78923;SDS011;75282;41.394;23.212;2024-03-25T02:05:12;1.25;;;1.05;;
78923;SDS011;75282;41.394;23.212;2024-03-25T02:07:38;2.15;;;1.33;;
78923;SDS011;75282;41.394;23.212;2024-03-25T02:10:06;2.58;;;1.15;;
78923;SDS011;75282;41.394;23.212;2024-03-25T02:12:32;1.80;;;1.25;;
78923;SDS011;75282;41.394;23.212;2024-03-25T02:14:58;5.97;;;1.40;;
78923;SDS011;75282;41.394;23.212;2024-03-25T02:17:24;1.15;;;0.93;;
78923;SDS011;75282;41.394;23.212;2024-03-25T02:19:49;1.30;;;1.08;;
78923;SDS011;75282;41.394;23.212;2024-03-25T02:22:15;1.25;;;0.80;;
78923;SDS011;75282;41.394;23.212;2024-03-25T02:24:41;1.58;;;1.10;;
78923;SDS011;75282;41.394;23.212;2024-03-25T02:27:06;1.80;;;0.95;;
78923;SDS011;75282;41.394;23.212;2024-03-25T02:29:33;1.10;;;0.93;;
78923;SDS011;75282;41.394;23.212;2024-03-25T02:31:59;0.55;;;0.55;;
78923;SDS011;75282;41.394;23.212;2024-03-25T02:34:25;1.13;;;0.93;;
78923;SDS011;75282;41.394;23.212;2024-03-25T02:36:50;0.73;;;0.73;;
78923;SDS011;75282;41.394;23.212;2024-03-25T02:39:16;0.47;;;0.40;;
78923;SDS011;75282;41.394;23.212;2024-03-25T02:41:42;1.10;;;0.85;;
78923;SDS011;75282;41.394;23.212;2024-03-25T02:44:08;1.98;;;0.95;;
78923;SDS011;75282;41.394;23.212;2024-03-25T02:46:33;2.50;;;0.73;;
78923;SDS011;75282;41.394;23.212;2024-03-25T02:48:59;1.15;;;0.90;;
78923;SDS011;75282;41.394;23.212;2024-03-25T02:51:25;1.38;;;0.80;;
78923;SDS011;75282;41.394;23.212;2024-03-25T02:53:50;0.85;;;0.65;;
78923;SDS011;75282;41.394;23.212;2024-03-25T02:56:16;0.57;;;0.57;;
78923;SDS011;75282;41.394;23.212;2024-03-25T02:58:41;0.85;;;0.60;;
78923;SDS011;75282;41.394;23.212;2024-03-25T03:01:07;0.88;;;0.60;;
78923;SDS011;75282;41.394;23.212;2024-03-25T03:03:32;0.63;;;0.63;;
78923;SDS011;75282;41.394;23.212;2024-03-25T03:05:57;1.20;;;0.70;;
78923;SDS011;75282;41.394;23.212;2024-03-25T03:08:23;0.70;;;0.70;;
78923;SDS011;75282;41.394;23.212;2024-03-25T03:10:48;3.00;;;1.10;;
78923;SDS011;75282;41.394;23.212;2024-03-25T03:13:13;0.68;;;0.63;;
78923;SDS011;75282;41.394;23.212;2024-03-25T03:15:43;1.60;;;1.00;;
78923;SDS011;75282;41.394;23.212;2024-03-25T03:18:09;0.65;;;0.45;;
78923;SDS011;75282;41.394;23.212;2024-03-25T03:20:35;0.65;;;0.63;;
78923;SDS011;75282;41.394;23.212;2024-03-25T03:23:00;1.55;;;0.73;;
78923;SDS011;75282;41.394;23.212;2024-03-25T03:25:25;0.70;;;0.70;;
78923;SDS011;75282;41.394;23.212;2024-03-25T03:27:51;1.42;;;0.73;;
78923;SDS011;75282;41.394;23.212;2024-03-25T03:30:16;0.38;;;0.32;;
78923;SDS011;75282;41.394;23.212;2024-03-25T03:32:42;0.80;;;0.55;;
78923;SDS011;75282;41.394;23.212;2024-03-25T03:35:07;0.50;;;0.50;;
78923;SDS011;75282;41.394;23.212;2024-03-25T03:37:32;1.10;;;0.47;;
78923;SDS011;75282;41.394;23.212;2024-03-25T03:39:58;2.22;;;0.73;;
78923;SDS011;75282;41.394;23.212;2024-03-25T03:42:23;0.60;;;0.60;;
78923;SDS011;75282;41.394;23.212;2024-03-25T03:44:49;0.77;;;0.45;;
78923;SDS011;75282;41.394;23.212;2024-03-25T03:47:14;1.15;;;0.45;;
78923;SDS011;75282;41.394;23.212;2024-03-25T03:49:40;0.45;;;0.40;;
78923;SDS011;75282;41.394;23.212;2024-03-25T03:52:05;0.88;;;0.70;;
78923;SDS011;75282;41.394;23.212;2024-03-25T03:54:30;1.67;;;1.13;;
78923;SDS011;75282;41.394;23.212;2024-03-25T03:56:56;3.53;;;0.80;;
78923;SDS011;75282;41.394;23.212;2024-03-25T03:59:21;0.73;;;0.50;;
78923;SDS011;75282;41.394;23.212;2024-03-25T04:01:47;0.75;;;0.60;;
78923;SDS011;75282;41.394;23.212;2024-03-25T04:04:12;0.60;;;0.52;;
78923;SDS011;75282;41.394;23.212;2024-03-25T04:06:37;0.85;;;0.82;;
78923;SDS011;75282;41.394;23.212;2024-03-25T04:09:05;1.02;;;0.82;;
78923;SDS011;75282;41.394;23.212;2024-03-25T04:11:34;2.88;;;1.40;;
78923;SDS011;75282;41.394;23.212;2024-03-25T04:14:00;1.63;;;1.02;;
78923;SDS011;75282;41.394;23.212;2024-03-25T04:16:26;1.30;;;0.80;;
78923;SDS011;75282;41.394;23.212;2024-03-25T04:18:51;1.75;;;1.65;;
78923;SDS011;75282;41.394;23.212;2024-03-25T04:21:16;0.55;;;0.55;;
78923;SDS011;75282;41.394;23.212;2024-03-25T04:23:42;1.05;;;0.80;;
78923;SDS011;75282;41.394;23.212;2024-03-25T04:26:09;0.88;;;0.70;;
78923;SDS011;75282;41.394;23.212;2024-03-25T04:28:35;1.92;;;1.13;;
78923;SDS011;75282;41.394;23.212;2024-03-25T04:31:00;1.98;;;1.30;;
78923;SDS011;75282;41.394;23.212;2024-03-25T04:33:26;4.57;;;0.93;;
78923;SDS011;75282;41.394;23.212;2024-03-25T04:35:51;1.48;;;1.00;;
78923;SDS011;75282;41.394;23.212;2024-03-25T04:38:17;1.35;;;0.85;;
78923;SDS011;75282;41.394;23.212;2024-03-25T04:40:42;1.40;;;0.82;;
78923;SDS011;75282;41.394;23.212;2024-03-25T04:43:09;1.63;;;1.17;;
78923;SDS011;75282;41.394;23.212;2024-03-25T04:45:34;3.60;;;1.20;;
78923;SDS011;75282;41.394;23.212;2024-03-25T04:47:59;1.20;;;1.00;;
78923;SDS011;75282;41.394;23.212;2024-03-25T04:50:25;2.00;;;1.20;;
78923;SDS011;75282;41.394;23.212;2024-03-25T04:52:51;1.40;;;0.95;;
78923;SDS011;75282;41.394;23.212;2024-03-25T04:55:17;1.10;;;0.85;;
78923;SDS011;75282;41.394;23.212;2024-03-25T04:57:42;2.35;;;1.00;;
78923;SDS011;75282;41.394;23.212;2024-03-25T05:00:08;1.27;;;1.00;;
78923;SDS011;75282;41.394;23.212;2024-03-25T05:02:36;2.63;;;1.25;;
78923;SDS011;75282;41.394;23.212;2024-03-25T05:05:02;3.47;;;1.17;;
78923;SDS011;75282;41.394;23.212;2024-03-25T05:07:28;1.50;;;1.00;;
78923;SDS011;75282;41.394;23.212;2024-03-25T05:09:53;0.93;;;0.77;;
78923;SDS011;75282;41.394;23.212;2024-03-25T05:12:19;1.60;;;1.10;;
78923;SDS011;75282;41.394;23.212;2024-03-25T05:14:45;1.58;;;1.00;;
78923;SDS011;75282;41.394;23.212;2024-03-25T05:17:10;2.15;;;1.00;;
78923;SDS011;75282;41.394;23.212;2024-03-25T05:19:36;1.37;;;1.10;;
78923;SDS011;75282;41.394;23.212;2024-03-25T05:22:01;1.27;;;0.90;;
78923;SDS011;75282;41.394;23.212;2024-03-25T05:24:26;0.85;;;0.77;;
78923;SDS011;75282;41.394;23.212;2024-03-25T05:26:53;1.65;;;1.02;;
78923;SDS011;75282;41.394;23.212;2024-03-25T05:29:18;1.85;;;1.23;;
78923;SDS011;75282;41.394;23.212;2024-03-25T05:31:57;1.88;;;1.08;;
78923;SDS011;75282;41.394;23.212;2024-03-25T05:34:26;2.00;;;0.90;;
78923;SDS011;75282;41.394;23.212;2024-03-25T05:36:52;1.63;;;1.00;;
78923;SDS011;75282;41.394;23.212;2024-03-25T05:39:18;1.70;;;1.00;;
78923;SDS011;75282;41.394;23.212;2024-03-25T05:41:44;0.77;;;0.70;;
78923;SDS011;75282;41.394;23.212;2024-03-25T05:44:09;1.30;;;1.20;;
78923;SDS011;75282;41.394;23.212;2024-03-25T05:46:35;1.90;;;1.25;;
78923;SDS011;75282;41.394;23.212;2024-03-25T05:49:03;1.60;;;1.17;;
78923;SDS011;75282;41.394;23.212;2024-03-25T05:51:29;1.50;;;1.10;;
78923;SDS011;75282;41.394;23.212;2024-03-25T05:53:55;2.08;;;1.35;;
78923;SDS011;75282;41.394;23.212;2024-03-25T05:56:21;2.78;;;1.05;;
78923;SDS011;75282;41.394;23.212;2024-03-25T05:58:46;1.58;;;1.30;;
78923;SDS011;75282;41.394;23.212;2024-03-25T06:01:12;5.25;;;1.60;;
78923;SDS011;75282;41.394;23.212;2024-03-25T06:03:37;3.50;;;1.55;;
78923;SDS011;75282;41.394;23.212;2024-03-25T06:06:03;2.08;;;1.40;;
78923;SDS011;75282;41.394;23.212;2024-03-25T06:08:28;1.90;;;1.23;;
78923;SDS011;75282;41.394;23.212;2024-03-25T06:10:54;2.85;;;1.67;;
78923;SDS011;75282;41.394;23.212;2024-03-25T06:13:20;0.80;;;0.80;;
78923;SDS011;75282;41.394;23.212;2024-03-25T06:15:45;2.75;;;1.83;;
78923;SDS011;75282;41.394;23.212;2024-03-25T06:18:11;4.35;;;1.90;;
78923;SDS011;75282;41.394;23.212;2024-03-25T06:20:37;4.55;;;2.75;;
78923;SDS011;75282;41.394;23.212;2024-03-25T06:23:02;2.63;;;1.70;;
78923;SDS011;75282;41.394;23.212;2024-03-25T06:25:28;2.33;;;1.42;;
78923;SDS011;75282;41.394;23.212;2024-03-25T06:27:54;2.60;;;1.80;;
78923;SDS011;75282;41.394;23.212;2024-03-25T06:30:20;3.33;;;1.80;;
78923;SDS011;75282;41.394;23.212;2024-03-25T06:33:04;1.42;;;1.20;;
78923;SDS011;75282;41.394;23.212;2024-03-25T06:35:48;2.72;;;1.85;;
78923;SDS011;75282;41.394;23.212;2024-03-25T06:38:13;3.33;;;2.22;;
78923;SDS011;75282;41.394;23.212;2024-03-25T06:40:39;5.57;;;2.15;;
78923;SDS011;75282;41.394;23.212;2024-03-25T06:43:04;3.13;;;1.63;;
78923;SDS011;75282;41.394;23.212;2024-03-25T06:45:30;2.47;;;1.98;;
78923;SDS011;75282;41.394;23.212;2024-03-25T06:47:56;4.60;;;2.60;;
78923;SDS011;75282;41.394;23.212;2024-03-25T06:50:22;3.33;;;2.10;;
78923;SDS011;75282;41.394;23.212;2024-03-25T06:52:48;3.85;;;2.00;;
78923;SDS011;75282;41.394;23.212;2024-03-25T06:55:14;2.42;;;1.60;;
78923;SDS011;75282;41.394;23.212;2024-03-25T06:57:39;3.47;;;2.20;;
78923;SDS011;75282;41.394;23.212;2024-03-25T07:00:05;2.77;;;2.03;;
78923;SDS011;75282;41.394;23.212;2024-03-25T07:02:35;2.33;;;1.63;;
78923;SDS011;75282;41.394;23.212;2024-03-25T07:05:00;2.00;;;1.77;;
78923;SDS011;75282;41.394;23.212;2024-03-25T07:07:26;3.38;;;2.17;;
78923;SDS011;75282;41.394;23.212;2024-03-25T07:09:51;3.72;;;2.08;;
78923;SDS011;75282;41.394;23.212;2024-03-25T07:12:19;1.90;;;1.30;;
78923;SDS011;75282;41.394;23.212;2024-03-25T07:14:48;4.25;;;2.20;;
78923;SDS011;75282;41.394;23.212;2024-03-25T07:17:14;4.20;;;2.00;;
78923;SDS011;75282;41.394;23.212;2024-03-25T07:19:39;3.35;;;2.22;;
78923;SDS011;75282;41.394;23.212;2024-03-25T07:22:04;2.63;;;1.65;;
78923;SDS011;75282;41.394;23.212;2024-03-25T07:24:30;2.40;;;1.80;;
78923;SDS011;75282;41.394;23.212;2024-03-25T07:26:55;2.72;;;1.70;;
78923;SDS011;75282;41.394;23.212;2024-03-25T07:29:21;4.60;;;1.42;;
78923;SDS011;75282;41.394;23.212;2024-03-25T07:31:46;2.55;;;1.90;;
78923;SDS011;75282;41.394;23.212;2024-03-25T07:34:11;8.83;;;4.93;;
78923;SDS011;75282;41.394;23.212;2024-03-25T07:36:37;8.82;;;5.40;;
78923;SDS011;75282;41.394;23.212;2024-03-25T07:39:04;8.38;;;5.72;;
78923;SDS011;75282;41.394;23.212;2024-03-25T07:41:39;6.82;;;4.10;;
78923;SDS011;75282;41.394;23.212;2024-03-25T07:44:07;7.50;;;4.88;;
78923;SDS011;75282;41.394;23.212;2024-03-25T07:46:33;6.28;;;3.50;;
78923;SDS011;75282;41.394;23.212;2024-03-25T07:48:59;3.78;;;2.80;;
78923;SDS011;75282;41.394;23.212;2024-03-25T07:51:24;4.18;;;3.00;;
78923;SDS011;75282;41.394;23.212;2024-03-25T07:53:50;5.25;;;3.50;;
78923;SDS011;75282;41.394;23.212;2024-03-25T07:56:15;4.65;;;2.90;;
78923;SDS011;75282;41.394;23.212;2024-03-25T07:58:41;12.25;;;6.03;;
78923;SDS011;75282;41.394;23.212;2024-03-25T08:01:07;4.00;;;2.78;;
78923;SDS011;75282;41.394;23.212;2024-03-25T08:03:32;4.47;;;2.88;;
78923;SDS011;75282;41.394;23.212;2024-03-25T08:05:58;4.45;;;3.00;;
78923;SDS011;75282;41.394;23.212;2024-03-25T08:08:24;4.78;;;2.67;;
78923;SDS011;75282;41.394;23.212;2024-03-25T08:10:49;3.87;;;2.20;;
78923;SDS011;75282;41.394;23.212;2024-03-25T08:13:14;3.67;;;2.47;;
78923;SDS011;75282;41.394;23.212;2024-03-25T08:15:41;4.03;;;2.25;;
78923;SDS011;75282;41.394;23.212;2024-03-25T08:18:06;2.72;;;2.03;;
78923;SDS011;75282;41.394;23.212;2024-03-25T08:20:32;4.88;;;2.65;;
78923;SDS011;75282;41.394;23.212;2024-03-25T08:22:57;2.80;;;2.00;;
78923;SDS011;75282;41.394;23.212;2024-03-25T08:25:22;3.05;;;2.25;;
78923;SDS011;75282;41.394;23.212;2024-03-25T08:27:48;3.70;;;2.47;;
78923;SDS011;75282;41.394;23.212;2024-03-25T08:30:13;3.77;;;2.80;;
78923;SDS011;75282;41.394;23.212;2024-03-25T08:32:39;4.20;;;2.55;;
78923;SDS011;75282;41.394;23.212;2024-03-25T08:35:04;2.90;;;1.80;;
78923;SDS011;75282;41.394;23.212;2024-03-25T08:37:30;3.30;;;2.47;;
78923;SDS011;75282;41.394;23.212;2024-03-25T08:39:55;5.45;;;2.72;;
78923;SDS011;75282;41.394;23.212;2024-03-25T08:42:20;7.32;;;3.25;;
78923;SDS011;75282;41.394;23.212;2024-03-25T08:44:46;7.18;;;3.88;;
78923;SDS011;75282;41.394;23.212;2024-03-25T08:47:12;7.25;;;3.10;;
78923;SDS011;75282;41.394;23.212;2024-03-25T08:49:37;7.97;;;4.10;;
78923;SDS011;75282;41.394;23.212;2024-03-25T08:52:03;4.33;;;3.23;;
78923;SDS011;75282;41.394;23.212;2024-03-25T08:54:28;7.57;;;3.58;;
78923;SDS011;75282;41.394;23.212;2024-03-25T08:56:53;6.47;;;3.90;;
78923;SDS011;75282;41.394;23.212;2024-03-25T08:59:19;9.75;;;4.70;;
78923;SDS011;75282;41.394;23.212;2024-03-25T09:01:44;7.07;;;3.30;;
78923;SDS011;75282;41.394;23.212;2024-03-25T09:04:10;3.97;;;2.90;;
78923;SDS011;75282;41.394;23.212;2024-03-25T09:06:35;5.77;;;2.30;;
78923;SDS011;75282;41.394;23.212;2024-03-25T09:09:01;11.95;;;4.63;;
78923;SDS011;75282;41.394;23.212;2024-03-25T09:11:46;5.78;;;3.20;;
78923;SDS011;75282;41.394;23.212;2024-03-25T09:14:11;8.38;;;4.10;;
78923;SDS011;75282;41.394;23.212;2024-03-25T09:16:37;6.00;;;3.08;;
78923;SDS011;75282;41.394;23.212;2024-03-25T09:19:02;4.50;;;3.03;;
78923;SDS011;75282;41.394;23.212;2024-03-25T09:21:27;10.83;;;5.07;;
78923;SDS011;75282;41.394;23.212;2024-03-25T09:23:54;7.95;;;3.78;;
78923;SDS011;75282;41.394;23.212;2024-03-25T09:26:21;8.80;;;3.55;;
78923;SDS011;75282;41.394;23.212;2024-03-25T09:28:47;7.50;;;3.63;;
78923;SDS011;75282;41.394;23.212;2024-03-25T09:31:12;5.47;;;3.17;;
78923;SDS011;75282;41.394;23.212;2024-03-25T09:33:38;4.28;;;2.97;;
78923;SDS011;75282;41.394;23.212;2024-03-25T09:36:04;6.60;;;4.20;;
78923;SDS011;75282;41.394;23.212;2024-03-25T09:38:29;5.20;;;2.50;;
78923;SDS011;75282;41.394;23.212;2024-03-25T09:40:55;8.60;;;2.95;;
78923;SDS011;75282;41.394;23.212;2024-03-25T09:43:27;5.18;;;3.70;;
78923;SDS011;75282;41.394;23.212;2024-03-25T09:46:22;4.68;;;3.20;;
78923;SDS011;75282;41.394;23.212;2024-03-25T09:48:48;3.92;;;2.90;;
78923;SDS011;75282;41.394;23.212;2024-03-25T09:51:15;6.95;;;3.40;;
78923;SDS011;75282;41.394;23.212;2024-03-25T09:53:40;3.60;;;2.72;;
78923;SDS011;75282;41.394;23.212;2024-03-25T09:56:06;3.80;;;2.75;;
78923;SDS011;75282;41.394;23.212;2024-03-25T09:58:32;3.95;;;2.80;;
78923;SDS011;75282;41.394;23.212;2024-03-25T10:00:59;5.30;;;2.80;;
78923;SDS011;75282;41.394;23.212;2024-03-25T10:03:30;2.40;;;2.10;;
78923;SDS011;75282;41.394;23.212;2024-03-25T10:06:06;3.28;;;2.40;;
78923;SDS011;75282;41.394;23.212;2024-03-25T10:08:35;3.75;;;2.78;;
78923;SDS011;75282;41.394;23.212;2024-03-25T10:11:00;3.92;;;2.50;;
78923;SDS011;75282;41.394;23.212;2024-03-25T10:13:28;2.90;;;2.03;;
78923;SDS011;75282;41.394;23.212;2024-03-25T10:15:56;3.17;;;2.20;;
78923;SDS011;75282;41.394;23.212;2024-03-25T10:18:22;5.68;;;3.15;;
78923;SDS011;75282;41.394;23.212;2024-03-25T10:20:51;3.50;;;2.35;;
78923;SDS011;75282;41.394;23.212;2024-03-25T10:23:20;5.68;;;2.78;;
78923;SDS011;75282;41.394;23.212;2024-03-25T10:25:47;4.53;;;2.53;;
78923;SDS011;75282;41.394;23.212;2024-03-25T10:28:13;4.85;;;2.78;;
78923;SDS011;75282;41.394;23.212;2024-03-25T10:30:38;4.22;;;2.60;;
78923;SDS011;75282;41.394;23.212;2024-03-25T10:33:06;13.43;;;5.80;;
78923;SDS011;75282;41.394;23.212;2024-03-25T10:35:34;8.45;;;4.20;;
78923;SDS011;75282;41.394;23.212;2024-03-25T10:38:01;6.40;;;4.10;;
78923;SDS011;75282;41.394;23.212;2024-03-25T10:40:32;5.25;;;3.45;;
78923;SDS011;75282;41.394;23.212;2024-03-25T10:43:02;3.03;;;2.58;;
78923;SDS011;75282;41.394;23.212;2024-03-25T10:45:46;3.90;;;2.40;;
78923;SDS011;75282;41.394;23.212;2024-03-25T10:50:42;4.50;;;3.08;;
78923;SDS011;75282;41.394;23.212;2024-03-25T10:53:08;4.75;;;3.67;;
78923;SDS011;75282;41.394;23.212;2024-03-25T10:55:36;3.33;;;2.60;;
78923;SDS011;75282;41.394;23.212;2024-03-25T10:58:02;3.38;;;2.25;;
78923;SDS011;75282;41.394;23.212;2024-03-25T11:00:29;2.60;;;2.22;;
78923;SDS011;75282;41.394;23.212;2024-03-25T11:02:54;2.75;;;1.90;;
78923;SDS011;75282;41.394;23.212;2024-03-25T11:05:20;3.72;;;2.78;;
78923;SDS011;75282;41.394;23.212;2024-03-25T11:07:46;5.35;;;3.20;;
78923;SDS011;75282;41.394;23.212;2024-03-25T11:10:12;3.70;;;2.45;;
78923;SDS011;75282;41.394;23.212;2024-03-25T11:12:38;3.75;;;2.45;;
78923;SDS011;75282;41.394;23.212;2024-03-25T11:15:07;4.55;;;2.58;;
78923;SDS011;75282;41.394;23.212;2024-03-25T11:17:33;4.95;;;3.35;;
78923;SDS011;75282;41.394;23.212;2024-03-25T11:20:17;3.42;;;2.05;;
78923;SDS011;75282;41.394;23.212;2024-03-25T11:22:49;5.38;;;4.20;;
78923;SDS011;75282;41.394;23.212;2024-03-25T11:25:15;4.07;;;3.33;;
78923;SDS011;75282;41.394;23.212;2024-03-25T11:27:42;4.93;;;2.88;;
78923;SDS011;75282;41.394;23.212;2024-03-25T11:30:09;5.05;;;3.13;;
78923;SDS011;75282;41.394;23.212;2024-03-25T11:32:45;6.63;;;3.20;;
78923;SDS011;75282;41.394;23.212;2024-03-25T11:37:42;6.65;;;3.47;;
78923;SDS011;75282;41.394;23.212;2024-03-25T11:40:09;8.77;;;5.78;;
78923;SDS011;75282;41.394;23.212;2024-03-25T11:42:41;8.48;;;4.13;;
78923;SDS011;75282;41.394;23.212;2024-03-25T11:45:16;6.20;;;3.25;;
78923;SDS011;75282;41.394;23.212;2024-03-25T11:47:46;5.20;;;3.42;;
78923;SDS011;75282;41.394;23.212;2024-03-25T11:52:39;5.78;;;3.05;;
78923;SDS011;75282;41.394;23.212;2024-03-25T11:55:05;3.90;;;3.08;;
78923;SDS011;75282;41.394;23.212;2024-03-25T11:57:33;4.38;;;3.00;;
78923;SDS011;75282;41.394;23.212;2024-03-25T11:59:58;8.88;;;3.78;;
78923;SDS011;75282;41.394;23.212;2024-03-25T12:02:25;4.85;;;3.03;;
78923;SDS011;75282;41.394;23.212;2024-03-25T12:04:50;4.93;;;3.22;;
78923;SDS011;75282;41.394;23.212;2024-03-25T12:07:16;5.78;;;2.90;;
78923;SDS011;75282;41.394;23.212;2024-03-25T12:09:41;4.93;;;2.85;;
78923;SDS011;75282;41.394;23.212;2024-03-25T12:12:25;4.20;;;2.50;;
78923;SDS011;75282;41.394;23.212;2024-03-25T12:14:51;7.68;;;5.20;;
78923;SDS011;75282;41.394;23.212;2024-03-25T12:17:18;5.13;;;3.40;;
78923;SDS011;75282;41.394;23.212;2024-03-25T12:19:43;5.85;;;3.90;;
78923;SDS011;75282;41.394;23.212;2024-03-25T12:22:08;5.50;;;3.05;;
78923;SDS011;75282;41.394;23.212;2024-03-25T12:24:34;4.10;;;2.90;;
78923;SDS011;75282;41.394;23.212;2024-03-25T12:27:00;6.13;;;3.40;;
78923;SDS011;75282;41.394;23.212;2024-03-25T12:29:26;6.80;;;3.28;;
78923;SDS011;75282;41.394;23.212;2024-03-25T12:31:54;6.38;;;2.83;;
78923;SDS011;75282;41.394;23.212;2024-03-25T12:34:20;6.47;;;3.78;;
78923;SDS011;75282;41.394;23.212;2024-03-25T12:36:46;6.20;;;3.67;;
78923;SDS011;75282;41.394;23.212;2024-03-25T12:39:19;10.02;;;3.78;;
78923;SDS011;75282;41.394;23.212;2024-03-25T12:41:45;8.93;;;6.18;;
78923;SDS011;75282;41.394;23.212;2024-03-25T12:44:13;34.83;;;19.80;;
78923;SDS011;75282;41.394;23.212;2024-03-25T12:46:39;23.55;;;13.40;;
78923;SDS011;75282;41.394;23.212;2024-03-25T12:49:07;5.20;;;3.65;;
78923;SDS011;75282;41.394;23.212;2024-03-25T12:51:33;8.05;;;4.38;;
78923;SDS011;75282;41.394;23.212;2024-03-25T12:53:58;5.40;;;3.70;;
78923;SDS011;75282;41.394;23.212;2024-03-25T12:56:24;8.38;;;4.60;;
78923;SDS011;75282;41.394;23.212;2024-03-25T12:58:50;7.93;;;4.95;;
78923;SDS011;75282;41.394;23.212;2024-03-25T13:01:16;11.35;;;5.50;;
78923;SDS011;75282;41.394;23.212;2024-03-25T13:03:41;7.07;;;5.15;;
78923;SDS011;75282;41.394;23.212;2024-03-25T13:06:07;6.32;;;3.80;;
78923;SDS011;75282;41.394;23.212;2024-03-25T13:08:33;9.57;;;3.58;;
78923;SDS011;75282;41.394;23.212;2024-03-25T13:10:58;4.75;;;3.72;;
78923;SDS011;75282;41.394;23.212;2024-03-25T13:13:25;8.00;;;4.13;;
78923;SDS011;75282;41.394;23.212;2024-03-25T13:15:51;7.60;;;4.80;;
78923;SDS011;75282;41.394;23.212;2024-03-25T13:18:16;5.57;;;4.07;;
78923;SDS011;75282;41.394;23.212;2024-03-25T13:20:43;5.78;;;4.07;;
78923;SDS011;75282;41.394;23.212;2024-03-25T13:23:09;5.75;;;3.72;;
78923;SDS011;75282;41.394;23.212;2024-03-25T13:25:34;4.80;;;3.50;;
78923;SDS011;75282;41.394;23.212;2024-03-25T13:28:00;6.97;;;3.47;;
78923;SDS011;75282;41.394;23.212;2024-03-25T13:30:25;7.63;;;5.00;;
78923;SDS011;75282;41.394;23.212;2024-03-25T13:32:52;6.55;;;4.55;;
78923;SDS011;75282;41.394;23.212;2024-03-25T13:35:17;8.77;;;4.88;;
78923;SDS011;75282;41.394;23.212;2024-03-25T13:37:43;11.75;;;4.78;;
78923;SDS011;75282;41.394;23.212;2024-03-25T13:40:09;5.90;;;4.65;;
78923;SDS011;75282;41.394;23.212;2024-03-25T13:42:36;5.35;;;3.60;;
78923;SDS011;75282;41.394;23.212;2024-03-25T13:45:05;6.28;;;3.95;;
78923;SDS011;75282;41.394;23.212;2024-03-25T13:47:31;4.18;;;2.95;;
78923;SDS011;75282;41.394;23.212;2024-03-25T13:50:00;6.45;;;4.45;;
78923;SDS011;75282;41.394;23.212;2024-03-25T13:52:29;8.52;;;5.90;;
78923;SDS011;75282;41.394;23.212;2024-03-25T13:54:54;6.65;;;3.95;;
78923;SDS011;75282;41.394;23.212;2024-03-25T13:57:20;6.88;;;4.15;;
78923;SDS011;75282;41.394;23.212;2024-03-25T13:59:45;8.25;;;5.25;;
78923;SDS011;75282;41.394;23.212;2024-03-25T14:02:11;8.07;;;4.40;;
78923;SDS011;75282;41.394;23.212;2024-03-25T14:04:36;7.95;;;5.00;;
78923;SDS011;75282;41.394;23.212;2024-03-25T14:07:02;7.43;;;4.22;;
78923;SDS011;75282;41.394;23.212;2024-03-25T14:09:28;6.28;;;4.93;;
78923;SDS011;75282;41.394;23.212;2024-03-25T14:11:53;6.32;;;4.70;;
78923;SDS011;75282;41.394;23.212;2024-03-25T14:14:22;6.75;;;4.15;;
78923;SDS011;75282;41.394;23.212;2024-03-25T14:16:50;6.57;;;4.82;;
78923;SDS011;75282;41.394;23.212;2024-03-25T14:19:15;6.63;;;3.65;;
78923;SDS011;75282;41.394;23.212;2024-03-25T14:21:41;4.20;;;3.20;;
78923;SDS011;75282;41.394;23.212;2024-03-25T14:24:06;9.00;;;4.40;;
78923;SDS011;75282;41.394;23.212;2024-03-25T14:26:32;8.82;;;4.45;;
78923;SDS011;75282;41.394;23.212;2024-03-25T14:28:58;12.10;;;5.68;;
78923;SDS011;75282;41.394;23.212;2024-03-25T14:31:25;10.27;;;6.68;;
78923;SDS011;75282;41.394;23.212;2024-03-25T14:33:51;11.48;;;5.75;;
78923;SDS011;75282;41.394;23.212;2024-03-25T14:36:16;12.60;;;7.32;;